createdAt,value
2022-12-14T00:02:19.413Z,100443.91
2022-12-14T00:04:49.353Z,100425.47
2022-12-14T00:07:19.088Z,100424.22
2022-12-14T00:09:48.720Z,100422.19
2022-12-14T00:12:19.159Z,100413.69
2022-12-14T00:14:48.802Z,100411.00
2022-12-14T00:17:18.691Z,100413.06
2022-12-14T00:19:48.974Z,100407.06
2022-12-14T00:22:18.808Z,100404.78
2022-12-14T00:24:47.200Z,100395.03
2022-12-14T00:27:15.682Z,100396.91
2022-12-14T00:29:45.061Z,100395.66
2022-12-14T00:32:12.474Z,100398.34
2022-12-14T00:34:40.995Z,100385.94
2022-12-14T00:37:09.439Z,100392.34
2022-12-14T00:39:37.785Z,100397.13
2022-12-14T00:42:08.646Z,100392.56
2022-12-14T00:44:37.638Z,100391.53
2022-12-14T00:47:06.143Z,100394.63
2022-12-14T00:49:34.604Z,100390.94
2022-12-14T00:52:03.316Z,100395.03
2022-12-14T00:54:31.603Z,100392.94
2022-12-14T00:57:00.356Z,100397.72
2022-12-14T00:59:28.449Z,100398.56
2022-12-14T01:01:57.287Z,100400.03
2022-12-14T01:04:26.276Z,100399.84
2022-12-14T01:06:55.321Z,100394.03
2022-12-14T01:09:27.243Z,100391.53
2022-12-14T01:11:56.671Z,100384.50
2022-12-14T01:14:26.910Z,100387.84
2022-12-14T01:16:56.691Z,100382.84
2022-12-14T01:19:26.584Z,100383.06
2022-12-14T01:21:56.412Z,100376.47
2022-12-14T01:24:23.934Z,100376.47
2022-12-14T01:26:53.864Z,100380.59
2022-12-14T01:29:24.987Z,100371.25
2022-12-14T01:31:54.439Z,100373.75
2022-12-14T01:34:24.484Z,100377.28
2022-12-14T01:36:54.318Z,100388.22
2022-12-14T01:39:24.401Z,100380.97
2022-12-14T01:41:53.945Z,100377.47
2022-12-14T01:44:23.729Z,100373.13
2022-12-14T01:47:12.722Z,100364.44
2022-12-14T01:50:07.960Z,100362.78
2022-12-14T01:52:47.063Z,100364.22
2022-12-14T01:55:49.125Z,100361.97
2022-12-14T01:58:26.362Z,100356.56
2022-12-14T02:01:02.953Z,100354.91
2022-12-14T02:03:42.827Z,100359.66
2022-12-14T02:06:36.245Z,100360.28
2022-12-14T02:09:18.842Z,100359.28
2022-12-14T02:12:26.765Z,100364.84
2022-12-14T02:14:58.967Z,100361.34
2022-12-14T02:17:29.382Z,100364.44
2022-12-14T02:19:59.662Z,100369.41
2022-12-14T02:23:06.167Z,100365.06
2022-12-14T02:26:09.207Z,100369.22
2022-12-14T02:29:32.941Z,100366.94
2022-12-14T02:33:06.698Z,100362.56
2022-12-14T02:36:01.195Z,100368.75
2022-12-14T02:38:52.848Z,100362.56
2022-12-14T02:41:44.523Z,100353.69
2022-12-14T02:44:46.911Z,100361.75
2022-12-14T02:47:45.630Z,100354.50
2022-12-14T02:51:11.725Z,100361.50
2022-12-14T02:54:47.369Z,100360.06
2022-12-14T02:57:33.395Z,100360.88
2022-12-14T03:00:07.474Z,100349.13
2022-12-14T03:02:44.072Z,100351.59
2022-12-14T03:05:14.806Z,100345.38
2022-12-14T03:08:19.109Z,100335.88
2022-12-14T03:11:08.168Z,100341.25
2022-12-14T03:13:50.215Z,100333.19
2022-12-14T03:16:44.536Z,100337.31
2022-12-14T03:19:35.593Z,100332.34
2022-12-14T03:22:23.419Z,100334.22
2022-12-14T03:25:08.976Z,100328.00
2022-12-14T03:27:55.751Z,100319.53
2022-12-14T03:30:58.243Z,100320.56
2022-12-14T03:33:29.364Z,100316.84
2022-12-14T03:36:34.261Z,100312.72
2022-12-14T03:39:17.367Z,100308.97
2022-12-14T03:42:31.580Z,100303.59
2022-12-14T03:45:22.257Z,100311.88
2022-12-14T03:48:25.007Z,100303.19
2022-12-14T03:51:07.056Z,100300.91
2022-12-14T03:54:49.817Z,100303.59
2022-12-14T03:57:55.614Z,100295.72
2022-12-14T04:00:32.815Z,100292.84
2022-12-14T04:03:54.239Z,100290.34
2022-12-14T04:06:52.583Z,100292.84
2022-12-14T04:10:44.876Z,100279.81
2022-12-14T04:13:48.958Z,100278.78
2022-12-14T04:16:49.465Z,100274.03
2022-12-14T04:19:40.046Z,100282.91
2022-12-14T04:22:25.874Z,100274.84
2022-12-14T04:25:27.389Z,100272.78
2022-12-14T04:29:00.007Z,100269.47
2022-12-14T04:31:38.016Z,100275.25
2022-12-14T04:34:16.023Z,100266.78
2022-12-14T04:37:16.932Z,100271.31
2022-12-14T04:40:20.463Z,100263.28
2022-12-14T04:43:02.215Z,100259.75
2022-12-14T04:45:49.031Z,100265.53
2022-12-14T04:49:03.206Z,100254.16
2022-12-14T04:52:03.409Z,100260.16
2022-12-14T04:55:05.016Z,100253.34
2022-12-14T04:58:06.514Z,100250.63
2022-12-14T05:01:06.776Z,100250.44
2022-12-14T05:04:12.123Z,100249.81
2022-12-14T05:07:41.902Z,100246.91
2022-12-14T05:10:37.611Z,100242.78
2022-12-14T05:13:37.048Z,100235.34
2022-12-14T05:16:08.563Z,100233.50
2022-12-14T05:18:38.897Z,100228.75
2022-12-14T05:21:30.595Z,100231.81
2022-12-14T05:24:04.334Z,100224.81
2022-12-14T05:26:34.678Z,100225.81
2022-12-14T05:29:04.709Z,100216.53
2022-12-14T05:31:35.357Z,100207.03
2022-12-14T05:34:05.464Z,100206.00
2022-12-14T05:36:35.635Z,100206.00
2022-12-14T05:39:05.776Z,100198.56
2022-12-14T05:41:35.772Z,100188.63
2022-12-14T05:44:04.676Z,100191.53
2022-12-14T05:46:32.950Z,100184.91
2022-12-14T05:49:01.224Z,100174.97
2022-12-14T05:51:29.632Z,100174.16
2022-12-14T05:53:59.136Z,100173.13
2022-12-14T05:56:26.657Z,100167.16
2022-12-14T05:58:54.914Z,100164.84
2022-12-14T06:01:23.666Z,100166.94
2022-12-14T06:03:55.017Z,100160.09
2022-12-14T06:06:23.472Z,100167.56
2022-12-14T06:08:51.664Z,100167.75
2022-12-14T06:11:23.948Z,100171.47
2022-12-14T06:13:54.022Z,100162.41
2022-12-14T06:16:26.713Z,100169.22
2022-12-14T06:19:01.023Z,100160.09
2022-12-14T06:21:39.482Z,100157.44
2022-12-14T06:24:09.798Z,100153.31
2022-12-14T06:26:42.441Z,100155.38
2022-12-14T06:29:19.043Z,100142.75
2022-12-14T06:31:49.652Z,100154.13
2022-12-14T06:34:24.804Z,100156.00
2022-12-14T06:40:57.720Z,100155.56
2022-12-14T06:43:27.167Z,100146.09
2022-12-14T06:45:57.545Z,100143.41
2022-12-14T06:48:25.762Z,100156.00
2022-12-14T06:51:01.615Z,100147.28
2022-12-14T06:53:34.438Z,100136.34
2022-12-14T06:56:10.100Z,100134.53
2022-12-14T06:58:40.470Z,100139.03
2022-12-14T07:01:17.031Z,100131.81
2022-12-14T07:03:57.430Z,100132.66
2022-12-14T07:06:35.087Z,100122.34
2022-12-14T07:09:13.541Z,100126.47
2022-12-14T07:11:43.656Z,100121.09
2022-12-14T07:14:17.920Z,100122.53
2022-12-14T07:16:48.691Z,100127.91
2022-12-14T07:19:18.620Z,100127.09
2022-12-14T07:21:48.005Z,100120.88
2022-12-14T07:24:18.259Z,100121.06
2022-12-14T07:26:48.266Z,100122.09
2022-12-14T07:29:18.406Z,100099.38
2022-12-14T07:31:49.405Z,100112.16
2022-12-14T07:34:19.385Z,100103.69
2022-12-14T07:36:54.219Z,100105.56
2022-12-14T07:39:23.574Z,100098.09
2022-12-14T07:41:52.237Z,100095.22
2022-12-14T07:44:22.585Z,100095.84
2022-12-14T07:46:54.106Z,100093.34
2022-12-14T07:49:23.317Z,100086.34
2022-12-14T07:51:53.372Z,100089.63
2022-12-14T07:54:25.085Z,100094.16
2022-12-14T07:56:54.563Z,100096.25
2022-12-14T07:59:24.650Z,100093.97
2022-12-14T08:01:55.758Z,100104.50
2022-12-14T08:04:25.074Z,100099.13
2022-12-14T08:06:55.615Z,100097.84
2022-12-14T08:09:25.345Z,100100.97
2022-12-14T08:11:55.348Z,100099.50
2022-12-14T08:14:25.495Z,100097.00
2022-12-14T08:16:55.536Z,100095.72
2022-12-14T08:19:25.914Z,100091.56
2022-12-14T08:21:55.804Z,100098.78
2022-12-14T08:24:25.849Z,100091.50
2022-12-14T08:26:55.565Z,100098.66
2022-12-14T08:29:25.615Z,100092.66
2022-12-14T08:31:56.534Z,100085.63
2022-12-14T08:34:26.061Z,100081.06
2022-12-14T08:36:56.091Z,100078.53
2022-12-14T08:39:26.182Z,100072.53
2022-12-14T08:41:56.198Z,100077.28
2022-12-14T08:44:26.680Z,100072.34
2022-12-14T08:46:56.533Z,100078.53
2022-12-14T08:49:32.098Z,100071.28
2022-12-14T08:51:59.824Z,100067.31
2022-12-14T08:54:28.284Z,100070.91
2022-12-14T08:56:56.622Z,100064.91
2022-12-14T08:59:59.366Z,100073.09
2022-12-14T09:02:15.171Z,100064.56
2022-12-14T09:04:45.252Z,100054.31
2022-12-14T09:07:13.779Z,100059.16
2022-12-14T09:09:42.423Z,100057.34
2022-12-14T09:12:14.190Z,100056.31
2022-12-14T09:14:42.185Z,100061.09
2022-12-14T09:17:10.343Z,100059.16
2022-12-14T09:19:39.016Z,100060.97
2022-12-14T09:22:07.669Z,100058.47
2022-12-14T09:24:36.695Z,100060.97
2022-12-14T09:27:04.379Z,100053.41
2022-12-14T09:29:32.508Z,100040.31
2022-12-14T09:32:00.920Z,100031.72
2022-12-14T09:34:29.607Z,100031.47
2022-12-14T09:36:58.005Z,100037.41
2022-12-14T09:39:26.152Z,100044.16
2022-12-14T09:42:50.786Z,100039.09
2022-12-14T09:45:50.614Z,100028.00
2022-12-14T09:48:26.003Z,100022.28
2022-12-14T09:50:54.695Z,100015.28
2022-12-14T09:53:24.980Z,100012.88
2022-12-14T09:55:59.040Z,100009.41
2022-12-14T09:58:32.637Z,100006.94
2022-12-14T10:01:22.322Z,100006.72
2022-12-14T10:04:10.319Z,99997.09
2022-12-14T10:07:02.222Z,100001.56
2022-12-14T10:10:43.716Z,99990.53
2022-12-14T10:13:56.967Z,99987.38
2022-12-14T10:16:51.657Z,99986.78
2022-12-14T10:19:57.278Z,99977.91
2022-12-14T10:22:42.479Z,99978.03
2022-12-14T10:25:37.450Z,99979.78
2022-12-14T10:28:36.256Z,99969.63
2022-12-14T10:31:20.888Z,99965.66
2022-12-14T10:33:50.727Z,99967.41
2022-12-14T10:36:44.824Z,99966.25
2022-12-14T10:40:15.777Z,99964.81
2022-12-14T10:43:32.888Z,99952.22
2022-12-14T10:46:56.295Z,99949.44
2022-12-14T10:49:55.387Z,99936.81
2022-12-14T10:52:41.678Z,99940.81
2022-12-14T10:55:44.167Z,99938.88
2022-12-14T10:58:11.921Z,99932.53
2022-12-14T11:00:40.326Z,99928.16
2022-12-14T11:03:15.834Z,99927.75
2022-12-14T11:06:12.608Z,99913.44
2022-12-14T11:08:49.596Z,99919.09
2022-12-14T11:11:26.712Z,99920.56
2022-12-14T11:14:10.014Z,99915.09
2022-12-14T11:16:41.906Z,99909.47
2022-12-14T11:19:26.644Z,99904.91
2022-12-14T11:22:22.267Z,99901.66
2022-12-14T11:24:52.735Z,99902.78
2022-12-14T11:27:22.868Z,99897.94
2022-12-14T11:29:53.040Z,99900.16
2022-12-14T11:32:25.629Z,99903.63
2022-12-14T11:34:59.727Z,99901.47
2022-12-14T11:37:32.882Z,99895.78
2022-12-14T11:40:27.116Z,99891.81
2022-12-14T11:43:04.822Z,99901.66
2022-12-14T11:45:37.427Z,99898.44
2022-12-14T11:48:14.461Z,99895.72
2022-12-14T11:50:46.821Z,99900.50
2022-12-14T11:53:20.294Z,99894.19
2022-12-14T11:55:58.962Z,99900.50
2022-12-14T11:58:46.432Z,99893.34
2022-12-14T12:01:26.769Z,99891.28
2022-12-14T12:03:59.535Z,99895.16
2022-12-14T12:06:30.854Z,99895.31
2022-12-14T12:09:11.604Z,99888.97
2022-12-14T12:11:46.345Z,99882.38
2022-12-14T12:14:38.920Z,99883.31
2022-12-14T12:17:46.904Z,99879.22
2022-12-14T12:20:40.843Z,99875.69
2022-12-14T12:23:35.487Z,99882.09
2022-12-14T12:26:31.905Z,99878.72
2022-12-14T12:29:31.697Z,99871.84
2022-12-14T12:32:27.120Z,99859.44
2022-12-14T12:35:51.101Z,99862.81
2022-12-14T12:39:06.246Z,99859.34
2022-12-14T12:42:13.247Z,99852.72
2022-12-14T12:45:55.026Z,99853.03
2022-12-14T12:48:43.534Z,99853.28
2022-12-14T12:51:32.594Z,99850.25
2022-12-14T12:54:32.870Z,99845.09
2022-12-14T12:57:11.219Z,99851.81
2022-12-14T12:59:54.767Z,99847.16
2022-12-14T13:02:46.601Z,99847.38
2022-12-14T13:08:35.747Z,99846.31
2022-12-14T13:11:28.427Z,99846.00
2022-12-14T13:14:34.323Z,99836.16
2022-12-14T13:17:49.591Z,99828.75
2022-12-14T13:20:30.090Z,99830.06
2022-12-14T13:23:28.376Z,99823.97
2022-12-14T13:26:55.618Z,99822.22
2022-12-14T13:29:48.125Z,99819.28
2022-12-14T13:32:51.067Z,99825.94
2022-12-14T13:35:35.827Z,99824.81
2022-12-14T13:38:32.958Z,99824.50
2022-12-14T13:42:07.457Z,99819.59
2022-12-14T13:45:01.438Z,99817.63
2022-12-14T13:47:49.383Z,99816.31
2022-12-14T13:50:43.789Z,99819.22
2022-12-14T13:53:42.367Z,99812.34
2022-12-14T13:56:32.454Z,99809.88
2022-12-14T13:59:34.196Z,99804.69
2022-12-14T14:02:26.967Z,99803.25
2022-12-14T14:05:15.516Z,99797.16
2022-12-14T14:08:43.217Z,99795.53
2022-12-14T14:11:40.022Z,99794.47
2022-12-14T14:14:47.075Z,99794.84
2022-12-14T14:17:38.078Z,99787.13
2022-12-14T14:20:52.511Z,99785.28
2022-12-14T14:23:23.403Z,99784.47
2022-12-14T14:26:18.488Z,99769.56
2022-12-14T14:29:29.690Z,99771.09
2022-12-14T14:32:36.448Z,99763.69
2022-12-14T14:35:27.620Z,99764.16
2022-12-14T14:38:22.439Z,99752.44
2022-12-14T14:41:18.396Z,99757.50
2022-12-14T14:44:06.913Z,99747.66
2022-12-14T14:46:48.783Z,99753.19
2022-12-14T14:49:34.007Z,99739.47
2022-12-14T14:52:37.839Z,99742.84
2022-12-14T14:55:51.856Z,99741.94
2022-12-14T14:58:36.970Z,99745.22
2022-12-14T15:01:21.705Z,99753.47
2022-12-14T15:04:21.557Z,99754.41
2022-12-14T15:07:08.654Z,99760.50
2022-12-14T15:09:50.799Z,99755.91
2022-12-14T15:12:32.539Z,99756.84
2022-12-14T15:15:42.996Z,99750.78
2022-12-14T15:18:31.836Z,99754.66
2022-12-14T15:21:18.969Z,99749.03
2022-12-14T15:23:55.874Z,99751.59
2022-12-14T15:26:33.785Z,99754.75
2022-12-14T15:29:04.673Z,99747.97
2022-12-14T15:31:42.866Z,99745.94
2022-12-14T15:34:20.694Z,99746.78
2022-12-14T15:36:52.978Z,99755.09
2022-12-14T15:39:43.681Z,99754.97
2022-12-14T15:42:18.392Z,99759.91
2022-12-14T15:45:18.406Z,99760.94
2022-12-14T15:47:49.290Z,99751.09
2022-12-14T15:50:34.537Z,99750.97
2022-12-14T15:53:51.514Z,99754.50
2022-12-14T15:56:40.743Z,99743.38
2022-12-14T15:59:31.055Z,99739.03
2022-12-14T16:02:32.521Z,99750.75
2022-12-14T16:05:07.431Z,99744.41
2022-12-14T16:07:45.095Z,99741.13
2022-12-14T16:10:33.586Z,99743.84
2022-12-14T16:13:20.830Z,99743.25
2022-12-14T16:15:52.695Z,99751.00
2022-12-14T16:18:24.454Z,99746.75
2022-12-14T16:21:06.494Z,99750.63
2022-12-14T16:23:41.850Z,99738.09
2022-12-14T16:26:16.250Z,99741.59
2022-12-14T16:28:48.225Z,99734.69
2022-12-14T16:31:24.105Z,99738.91
2022-12-14T16:34:29.560Z,99729.66
2022-12-14T16:39:54.568Z,99736.66
2022-12-14T16:42:27.254Z,99737.03
2022-12-14T16:44:55.555Z,99732.44
2022-12-14T16:48:13.941Z,99741.81
2022-12-14T16:51:04.958Z,99743.81
2022-12-14T16:53:34.834Z,99735.47
2022-12-14T16:56:20.882Z,99744.72
2022-12-14T16:59:05.581Z,99748.94
2022-12-14T17:01:46.996Z,99745.50
2022-12-14T17:04:22.435Z,99742.31
2022-12-14T17:06:56.520Z,99745.50
2022-12-14T17:09:33.320Z,99748.03
2022-12-14T17:12:17.823Z,99749.53
2022-12-14T17:14:50.182Z,99749.88
2022-12-14T17:17:35.798Z,99749.03
2022-12-14T17:20:16.737Z,99744.72
2022-12-14T17:22:49.770Z,99752.22
2022-12-14T17:25:21.108Z,99746.00
2022-12-14T17:27:50.168Z,99757.81
2022-12-14T17:30:23.987Z,99750.66
2022-12-14T17:32:55.756Z,99741.88
2022-12-14T17:35:32.232Z,99754.28
2022-12-14T17:38:00.267Z,99746.66
2022-12-14T17:40:30.162Z,99748.72
2022-12-14T17:43:00.168Z,99747.84
2022-12-14T17:45:30.707Z,99748.31
2022-12-14T17:48:01.354Z,99756.25
2022-12-14T17:50:32.281Z,99760.00
2022-12-14T17:53:02.290Z,99754.28
2022-12-14T17:55:32.783Z,99757.66
2022-12-14T17:58:02.944Z,99742.41
2022-12-14T18:00:52.353Z,99745.56
2022-12-14T18:03:22.394Z,99746.00
2022-12-14T18:05:52.820Z,99746.69
2022-12-14T18:08:24.739Z,99746.31
2022-12-14T18:11:10.241Z,99746.97
2022-12-14T18:13:44.720Z,99750.75
2022-12-14T18:16:24.163Z,99756.56
2022-12-14T18:18:54.955Z,99758.06
2022-12-14T18:21:30.237Z,99756.63
2022-12-14T18:24:00.773Z,99756.25
2022-12-14T18:26:30.827Z,99750.66
2022-12-14T18:29:00.853Z,99750.06
2022-12-14T18:31:38.213Z,99748.84
2022-12-14T18:34:10.949Z,99744.75
2022-12-14T18:36:41.356Z,99743.56
2022-12-14T18:39:11.425Z,99748.56
2022-12-14T18:41:39.885Z,99761.56
2022-12-14T18:44:11.467Z,99758.50
2022-12-14T18:46:39.976Z,99748.63
2022-12-14T18:49:08.261Z,99758.78
2022-12-14T18:51:36.785Z,99754.09
2022-12-14T18:54:06.884Z,99755.56
2022-12-14T18:56:37.051Z,99757.66
2022-12-14T18:59:07.067Z,99758.72
2022-12-14T19:01:37.256Z,99751.06
2022-12-14T19:04:08.285Z,99757.31
2022-12-14T19:06:46.012Z,99761.84
2022-12-14T19:09:15.493Z,99747.56
2022-12-14T19:11:45.507Z,99754.00
2022-12-14T19:14:16.071Z,99759.00
2022-12-14T19:16:45.153Z,99760.03
2022-12-14T19:19:15.041Z,99758.00
2022-12-14T19:21:44.762Z,99761.16
2022-12-14T19:24:15.099Z,99764.25
2022-12-14T19:26:45.431Z,99753.97
2022-12-14T19:29:19.920Z,99755.22
2022-12-14T19:31:54.037Z,99757.06
2022-12-14T19:34:24.640Z,99767.69
2022-12-14T19:36:54.729Z,99766.47
2022-12-14T19:39:24.476Z,99765.88
2022-12-14T19:41:54.946Z,99764.00
2022-12-14T19:44:25.083Z,99762.97
2022-12-14T19:46:54.950Z,99766.69
2022-12-14T19:49:24.763Z,99771.47
2022-12-14T19:51:54.685Z,99767.13
2022-12-14T19:54:24.420Z,99765.25
2022-12-14T19:56:54.482Z,99761.38
2022-12-14T19:59:24.226Z,99763.25
2022-12-14T20:01:54.246Z,99775.03
2022-12-14T20:04:24.658Z,99777.34
2022-12-14T20:06:54.911Z,99780.44
2022-12-14T20:09:24.838Z,99776.94
2022-12-14T20:11:54.621Z,99782.97
2022-12-14T20:14:26.543Z,99778.63
2022-12-14T20:16:56.431Z,99788.56
2022-12-14T20:19:24.958Z,99784.25
2022-12-14T20:21:53.149Z,99779.28
2022-12-14T20:24:21.337Z,99773.31
2022-12-14T20:26:51.437Z,99782.44
2022-12-14T20:29:19.793Z,99780.16
2022-12-14T20:31:50.279Z,99782.03
2022-12-14T20:34:19.767Z,99788.66
2022-12-14T20:36:49.577Z,99783.94
2022-12-14T20:39:19.578Z,99777.13
2022-12-14T20:41:49.319Z,99780.88
2022-12-14T20:44:19.474Z,99781.91
2022-12-14T20:46:51.936Z,99780.25
2022-12-14T20:49:23.279Z,99779.44
2022-12-14T20:51:53.281Z,99785.22
2022-12-14T20:54:24.303Z,99779.03
2022-12-14T20:56:53.282Z,99774.13
2022-12-14T20:59:23.128Z,99774.72
2022-12-14T21:01:56.121Z,99778.91
2022-12-14T21:04:27.120Z,99781.81
2022-12-14T21:06:57.056Z,99785.31
2022-12-14T21:09:27.098Z,99789.06
2022-12-14T21:12:16.037Z,99787.19
2022-12-14T21:14:48.077Z,99791.13
2022-12-14T21:17:26.420Z,99794.03
2022-12-14T21:19:55.424Z,99785.34
2022-12-14T21:22:30.694Z,99790.94
2022-12-14T21:25:04.865Z,99791.13
2022-12-14T21:27:39.434Z,99793.81
2022-12-14T21:30:12.487Z,99784.97
2022-12-14T21:32:42.457Z,99788.31
2022-12-14T21:35:13.403Z,99798.66
2022-12-14T21:37:43.402Z,99798.66
2022-12-14T21:40:33.372Z,99797.22
2022-12-14T21:43:04.125Z,99802.78
2022-12-14T21:45:34.363Z,99802.19
2022-12-14T21:48:04.466Z,99800.56
2022-12-14T21:50:34.304Z,99810.69
2022-12-14T21:53:04.534Z,99813.38
2022-12-14T21:55:34.252Z,99809.00
2022-12-14T21:58:18.779Z,99810.06
2022-12-14T22:00:46.659Z,99812.97
2022-12-14T22:03:15.023Z,99809.47
2022-12-14T22:05:43.394Z,99813.19
2022-12-14T22:08:11.819Z,99814.22
2022-12-14T22:10:40.295Z,99813.59
2022-12-14T22:13:08.650Z,99808.66
2022-12-14T22:15:37.227Z,99818.56
2022-12-14T22:18:05.746Z,99813.41
2022-12-14T22:20:34.050Z,99809.28
2022-12-14T22:23:02.332Z,99820.00
2022-12-14T22:25:30.817Z,99826.22
2022-12-14T22:27:59.291Z,99821.88
2022-12-14T22:30:31.643Z,99816.72
2022-12-14T22:33:01.959Z,99822.31
2022-12-14T22:35:32.207Z,99822.09
2022-12-14T22:38:02.222Z,99829.56
2022-12-14T22:40:33.966Z,99827.28
2022-12-14T22:43:03.263Z,99830.16
2022-12-14T22:45:35.329Z,99822.34
2022-12-14T22:48:05.560Z,99819.03
2022-12-14T22:50:35.562Z,99823.34
2022-12-14T22:53:05.385Z,99818.44
2022-12-14T22:55:39.825Z,99828.31
2022-12-14T22:58:14.646Z,99824.19
2022-12-14T23:00:44.765Z,99834.31
2022-12-14T23:03:14.868Z,99829.59
2022-12-14T23:05:42.569Z,99832.94
2022-12-14T23:08:12.281Z,99828.81
2022-12-14T23:11:00.959Z,99830.25
2022-12-14T23:13:49.353Z,99820.34
2022-12-14T23:16:38.025Z,99828.00
2022-12-14T23:19:26.404Z,99828.41
2022-12-14T23:22:12.426Z,99822.22
2022-12-14T23:25:00.638Z,99831.91
2022-12-14T23:27:48.954Z,99829.44
2022-12-14T23:30:37.522Z,99826.34
2022-12-14T23:33:26.423Z,99827.81
2022-12-14T23:36:15.231Z,99830.69
2022-12-14T23:39:03.094Z,99829.44
2022-12-14T23:41:51.598Z,99831.28
2022-12-14T23:44:40.541Z,99832.72
2022-12-14T23:47:28.626Z,99831.50
2022-12-14T23:50:16.936Z,99832.72
2022-12-14T23:53:05.874Z,99823.06
2022-12-14T23:55:54.440Z,99826.56
2022-12-14T23:58:43.190Z,99837.66
